sensor_id;sensor_type;location;lat;lon;timestamp;P1;durP1;ratioP1;P2;durP2;ratioP2
55493;SDS011;41355;50.390;19.096;2023-04-03T00:00:30;14.73;;;6.05;;
55493;SDS011;41355;50.390;19.096;2023-04-03T00:02:56;16.95;;;5.85;;
55493;SDS011;41355;50.390;19.096;2023-04-03T00:05:22;14.73;;;6.00;;
55493;SDS011;41355;50.390;19.096;2023-04-03T00:07:48;12.50;;;4.63;;
55493;SDS011;41355;50.390;19.096;2023-04-03T00:10:15;10.98;;;4.22;;
55493;SDS011;41355;50.390;19.096;2023-04-03T00:12:41;19.30;;;9.65;;
55493;SDS011;41355;50.390;19.096;2023-04-03T00:15:07;14.52;;;7.97;;
55493;SDS011;41355;50.390;19.096;2023-04-03T00:17:33;15.15;;;6.15;;
55493;SDS011;41355;50.390;19.096;2023-04-03T00:20:00;13.45;;;6.13;;
55493;SDS011;41355;50.390;19.096;2023-04-03T00:22:26;20.45;;;9.25;;
55493;SDS011;41355;50.390;19.096;2023-04-03T00:24:53;18.60;;;8.27;;
55493;SDS011;41355;50.390;19.096;2023-04-03T00:27:19;25.85;;;10.88;;
55493;SDS011;41355;50.390;19.096;2023-04-03T00:29:45;18.92;;;7.65;;
55493;SDS011;41355;50.390;19.096;2023-04-03T00:32:12;25.27;;;10.27;;
55493;SDS011;41355;50.390;19.096;2023-04-03T00:34:38;27.40;;;10.75;;
55493;SDS011;41355;50.390;19.096;2023-04-03T00:37:04;19.90;;;9.05;;
55493;SDS011;41355;50.390;19.096;2023-04-03T00:39:31;30.58;;;11.30;;
55493;SDS011;41355;50.390;19.096;2023-04-03T00:41:57;28.85;;;10.52;;
55493;SDS011;41355;50.390;19.096;2023-04-03T00:46:58;27.42;;;10.10;;
55493;SDS011;41355;50.390;19.096;2023-04-03T00:49:25;29.30;;;11.18;;
55493;SDS011;41355;50.390;19.096;2023-04-03T00:51:51;28.27;;;12.15;;
55493;SDS011;41355;50.390;19.096;2023-04-03T00:54:17;41.65;;;14.88;;
55493;SDS011;41355;50.390;19.096;2023-04-03T00:56:43;22.23;;;10.82;;
55493;SDS011;41355;50.390;19.096;2023-04-03T00:59:12;26.00;;;9.82;;
55493;SDS011;41355;50.390;19.096;2023-04-03T01:01:40;38.63;;;15.10;;
55493;SDS011;41355;50.390;19.096;2023-04-03T01:06:52;26.33;;;11.55;;
55493;SDS011;41355;50.390;19.096;2023-04-03T01:09:21;34.05;;;14.50;;
55493;SDS011;41355;50.390;19.096;2023-04-03T01:11:47;34.05;;;14.52;;
55493;SDS011;41355;50.390;19.096;2023-04-03T01:14:13;37.33;;;13.32;;
55493;SDS011;41355;50.390;19.096;2023-04-03T01:16:39;26.30;;;11.77;;
55493;SDS011;41355;50.390;19.096;2023-04-03T01:19:06;37.20;;;16.90;;
55493;SDS011;41355;50.390;19.096;2023-04-03T01:26:38;24.02;;;10.43;;
55493;SDS011;41355;50.390;19.096;2023-04-03T01:29:04;36.45;;;15.05;;
55493;SDS011;41355;50.390;19.096;2023-04-03T01:31:31;31.75;;;13.23;;
55493;SDS011;41355;50.390;19.096;2023-04-03T01:33:59;34.42;;;14.18;;
55493;SDS011;41355;50.390;19.096;2023-04-03T01:36:27;32.40;;;13.48;;
55493;SDS011;41355;50.390;19.096;2023-04-03T01:38:53;33.88;;;14.32;;
55493;SDS011;41355;50.390;19.096;2023-04-03T01:41:20;25.50;;;11.13;;
55493;SDS011;41355;50.390;19.096;2023-04-03T01:43:46;31.05;;;12.85;;
55493;SDS011;41355;50.390;19.096;2023-04-03T01:46:12;24.77;;;11.63;;
55493;SDS011;41355;50.390;19.096;2023-04-03T01:48:39;31.30;;;10.73;;
55493;SDS011;41355;50.390;19.096;2023-04-03T01:51:05;49.95;;;11.75;;
55493;SDS011;41355;50.390;19.096;2023-04-03T01:53:31;21.73;;;10.93;;
55493;SDS011;41355;50.390;19.096;2023-04-03T01:55:57;25.13;;;11.65;;
55493;SDS011;41355;50.390;19.096;2023-04-03T01:58:23;23.63;;;9.07;;
55493;SDS011;41355;50.390;19.096;2023-04-03T02:00:50;20.67;;;8.45;;
55493;SDS011;41355;50.390;19.096;2023-04-03T02:03:16;32.13;;;9.93;;
55493;SDS011;41355;50.390;19.096;2023-04-03T02:05:42;26.52;;;10.52;;
55493;SDS011;41355;50.390;19.096;2023-04-03T02:08:08;23.10;;;10.05;;
55493;SDS011;41355;50.390;19.096;2023-04-03T02:10:34;15.38;;;6.53;;
55493;SDS011;41355;50.390;19.096;2023-04-03T02:13:00;19.45;;;8.57;;
55493;SDS011;41355;50.390;19.096;2023-04-03T02:15:26;21.80;;;8.80;;
55493;SDS011;41355;50.390;19.096;2023-04-03T02:17:52;21.50;;;9.23;;
55493;SDS011;41355;50.390;19.096;2023-04-03T02:20:18;21.10;;;7.45;;
55493;SDS011;41355;50.390;19.096;2023-04-03T02:22:44;19.33;;;8.38;;
55493;SDS011;41355;50.390;19.096;2023-04-03T02:25:10;34.22;;;11.85;;
55493;SDS011;41355;50.390;19.096;2023-04-03T02:27:37;23.63;;;9.18;;
55493;SDS011;41355;50.390;19.096;2023-04-03T02:30:04;27.30;;;8.45;;
55493;SDS011;41355;50.390;19.096;2023-04-03T02:32:30;18.63;;;6.90;;
55493;SDS011;41355;50.390;19.096;2023-04-03T02:34:56;18.48;;;7.93;;
55493;SDS011;41355;50.390;19.096;2023-04-03T02:37:22;24.08;;;8.68;;
55493;SDS011;41355;50.390;19.096;2023-04-03T02:39:48;28.13;;;9.25;;
55493;SDS011;41355;50.390;19.096;2023-04-03T02:42:14;23.00;;;10.43;;
55493;SDS011;41355;50.390;19.096;2023-04-03T02:44:40;25.83;;;8.65;;
55493;SDS011;41355;50.390;19.096;2023-04-03T02:47:06;24.65;;;9.82;;
55493;SDS011;41355;50.390;19.096;2023-04-03T02:49:32;19.27;;;8.32;;
55493;SDS011;41355;50.390;19.096;2023-04-03T02:51:58;18.00;;;8.25;;
55493;SDS011;41355;50.390;19.096;2023-04-03T02:54:25;14.65;;;5.53;;
55493;SDS011;41355;50.390;19.096;2023-04-03T02:56:53;23.85;;;8.50;;
55493;SDS011;41355;50.390;19.096;2023-04-03T02:59:19;16.90;;;5.57;;
55493;SDS011;41355;50.390;19.096;2023-04-03T03:01:45;24.92;;;5.90;;
55493;SDS011;41355;50.390;19.096;2023-04-03T03:04:11;19.30;;;5.78;;
55493;SDS011;41355;50.390;19.096;2023-04-03T03:06:37;14.07;;;5.95;;
55493;SDS011;41355;50.390;19.096;2023-04-03T03:09:04;16.45;;;6.18;;
55493;SDS011;41355;50.390;19.096;2023-04-03T03:11:30;14.10;;;4.97;;
55493;SDS011;41355;50.390;19.096;2023-04-03T03:13:57;17.55;;;4.60;;
55493;SDS011;41355;50.390;19.096;2023-04-03T03:16:23;16.30;;;5.65;;
55493;SDS011;41355;50.390;19.096;2023-04-03T03:18:49;18.40;;;6.63;;
55493;SDS011;41355;50.390;19.096;2023-04-03T03:21:15;10.07;;;3.38;;
55493;SDS011;41355;50.390;19.096;2023-04-03T03:23:41;7.85;;;3.40;;
55493;SDS011;41355;50.390;19.096;2023-04-03T03:26:08;15.07;;;4.90;;
55493;SDS011;41355;50.390;19.096;2023-04-03T03:28:35;15.13;;;5.15;;
55493;SDS011;41355;50.390;19.096;2023-04-03T03:31:01;11.55;;;5.35;;
55493;SDS011;41355;50.390;19.096;2023-04-03T03:33:27;11.40;;;4.38;;
55493;SDS011;41355;50.390;19.096;2023-04-03T03:35:54;11.05;;;4.60;;
55493;SDS011;41355;50.390;19.096;2023-04-03T03:38:20;16.27;;;5.72;;
55493;SDS011;41355;50.390;19.096;2023-04-03T03:40:47;13.68;;;4.50;;
55493;SDS011;41355;50.390;19.096;2023-04-03T03:43:13;11.40;;;4.55;;
55493;SDS011;41355;50.390;19.096;2023-04-03T03:45:39;14.85;;;3.38;;
55493;SDS011;41355;50.390;19.096;2023-04-03T03:48:06;12.82;;;3.80;;
55493;SDS011;41355;50.390;19.096;2023-04-03T03:50:32;6.88;;;2.47;;
55493;SDS011;41355;50.390;19.096;2023-04-03T03:52:58;13.77;;;5.25;;
55493;SDS011;41355;50.390;19.096;2023-04-03T03:55:24;12.65;;;4.30;;
55493;SDS011;41355;50.390;19.096;2023-04-03T03:57:51;15.68;;;3.47;;
55493;SDS011;41355;50.390;19.096;2023-04-03T04:00:17;14.98;;;2.55;;
55493;SDS011;41355;50.390;19.096;2023-04-03T04:02:43;9.93;;;3.65;;
55493;SDS011;41355;50.390;19.096;2023-04-03T04:05:09;13.13;;;4.32;;
55493;SDS011;41355;50.390;19.096;2023-04-03T04:07:35;12.85;;;4.50;;
55493;SDS011;41355;50.390;19.096;2023-04-03T04:10:01;12.55;;;4.07;;
55493;SDS011;41355;50.390;19.096;2023-04-03T04:12:27;9.52;;;4.20;;
55493;SDS011;41355;50.390;19.096;2023-04-03T04:14:54;14.82;;;5.63;;
55493;SDS011;41355;50.390;19.096;2023-04-03T04:17:21;8.90;;;3.15;;
55493;SDS011;41355;50.390;19.096;2023-04-03T04:19:47;14.85;;;4.22;;
55493;SDS011;41355;50.390;19.096;2023-04-03T04:22:13;10.32;;;3.83;;
55493;SDS011;41355;50.390;19.096;2023-04-03T04:24:39;12.02;;;4.80;;
55493;SDS011;41355;50.390;19.096;2023-04-03T04:27:05;11.18;;;4.05;;
55493;SDS011;41355;50.390;19.096;2023-04-03T04:29:31;13.20;;;5.47;;
55493;SDS011;41355;50.390;19.096;2023-04-03T04:32:01;13.02;;;4.18;;
55493;SDS011;41355;50.390;19.096;2023-04-03T04:34:27;8.75;;;3.83;;
55493;SDS011;41355;50.390;19.096;2023-04-03T04:36:53;12.90;;;4.70;;
55493;SDS011;41355;50.390;19.096;2023-04-03T04:39:19;10.05;;;4.30;;
55493;SDS011;41355;50.390;19.096;2023-04-03T04:41:45;12.07;;;4.50;;
55493;SDS011;41355;50.390;19.096;2023-04-03T04:44:11;11.25;;;3.55;;
55493;SDS011;41355;50.390;19.096;2023-04-03T04:46:37;14.30;;;4.50;;
55493;SDS011;41355;50.390;19.096;2023-04-03T04:49:04;16.42;;;4.10;;
55493;SDS011;41355;50.390;19.096;2023-04-03T04:51:30;10.13;;;4.18;;
55493;SDS011;41355;50.390;19.096;2023-04-03T04:53:56;12.90;;;4.22;;
55493;SDS011;41355;50.390;19.096;2023-04-03T04:56:22;10.48;;;3.83;;
55493;SDS011;41355;50.390;19.096;2023-04-03T04:58:48;15.05;;;4.55;;
55493;SDS011;41355;50.390;19.096;2023-04-03T05:01:15;10.60;;;3.92;;
55493;SDS011;41355;50.390;19.096;2023-04-03T05:03:41;11.90;;;3.30;;
55493;SDS011;41355;50.390;19.096;2023-04-03T05:06:07;12.88;;;4.68;;
55493;SDS011;41355;50.390;19.096;2023-04-03T05:08:33;12.02;;;4.18;;
55493;SDS011;41355;50.390;19.096;2023-04-03T05:10:59;18.08;;;4.07;;
55493;SDS011;41355;50.390;19.096;2023-04-03T05:13:25;17.95;;;4.53;;
55493;SDS011;41355;50.390;19.096;2023-04-03T05:15:51;11.02;;;4.22;;
55493;SDS011;41355;50.390;19.096;2023-04-03T05:18:17;14.50;;;5.20;;
55493;SDS011;41355;50.390;19.096;2023-04-03T05:20:43;10.20;;;3.72;;
55493;SDS011;41355;50.390;19.096;2023-04-03T05:23:09;9.80;;;3.08;;
55493;SDS011;41355;50.390;19.096;2023-04-03T05:25:38;14.95;;;4.30;;
55493;SDS011;41355;50.390;19.096;2023-04-03T05:28:05;12.20;;;4.50;;
55493;SDS011;41355;50.390;19.096;2023-04-03T05:30:31;10.55;;;4.07;;
55493;SDS011;41355;50.390;19.096;2023-04-03T05:32:58;14.50;;;4.68;;
55493;SDS011;41355;50.390;19.096;2023-04-03T05:35:24;13.32;;;4.10;;
55493;SDS011;41355;50.390;19.096;2023-04-03T05:37:50;13.65;;;4.68;;
55493;SDS011;41355;50.390;19.096;2023-04-03T05:40:17;5.28;;;2.58;;
55493;SDS011;41355;50.390;19.096;2023-04-03T05:42:43;10.02;;;3.83;;
55493;SDS011;41355;50.390;19.096;2023-04-03T05:45:09;14.75;;;3.40;;
55493;SDS011;41355;50.390;19.096;2023-04-03T05:47:35;12.05;;;4.35;;
55493;SDS011;41355;50.390;19.096;2023-04-03T05:50:02;11.77;;;3.83;;
55493;SDS011;41355;50.390;19.096;2023-04-03T05:52:29;12.57;;;4.22;;
55493;SDS011;41355;50.390;19.096;2023-04-03T05:54:56;8.80;;;3.05;;
55493;SDS011;41355;50.390;19.096;2023-04-03T05:57:22;12.65;;;4.03;;
55493;SDS011;41355;50.390;19.096;2023-04-03T05:59:48;9.75;;;4.18;;
55493;SDS011;41355;50.390;19.096;2023-04-03T06:02:19;19.80;;;4.72;;
55493;SDS011;41355;50.390;19.096;2023-04-03T06:04:45;11.75;;;3.80;;
55493;SDS011;41355;50.390;19.096;2023-04-03T06:07:13;18.45;;;3.85;;
55493;SDS011;41355;50.390;19.096;2023-04-03T06:09:40;14.25;;;3.45;;
55493;SDS011;41355;50.390;19.096;2023-04-03T06:12:07;12.73;;;4.25;;
55493;SDS011;41355;50.390;19.096;2023-04-03T06:14:33;17.00;;;4.07;;
55493;SDS011;41355;50.390;19.096;2023-04-03T06:16:59;12.80;;;3.55;;
55493;SDS011;41355;50.390;19.096;2023-04-03T06:19:26;13.93;;;4.93;;
55493;SDS011;41355;50.390;19.096;2023-04-03T06:21:52;14.63;;;4.10;;
55493;SDS011;41355;50.390;19.096;2023-04-03T06:24:18;10.32;;;3.45;;
55493;SDS011;41355;50.390;19.096;2023-04-03T06:26:46;16.02;;;4.70;;
55493;SDS011;41355;50.390;19.096;2023-04-03T06:29:13;17.92;;;5.07;;
55493;SDS011;41355;50.390;19.096;2023-04-03T06:31:39;11.52;;;3.92;;
55493;SDS011;41355;50.390;19.096;2023-04-03T06:34:05;10.00;;;3.90;;
55493;SDS011;41355;50.390;19.096;2023-04-03T06:36:32;11.98;;;3.80;;
55493;SDS011;41355;50.390;19.096;2023-04-03T06:38:58;10.45;;;3.65;;
55493;SDS011;41355;50.390;19.096;2023-04-03T06:41:24;11.55;;;4.13;;
55493;SDS011;41355;50.390;19.096;2023-04-03T06:43:51;15.82;;;4.45;;
55493;SDS011;41355;50.390;19.096;2023-04-03T06:46:18;10.13;;;3.15;;
55493;SDS011;41355;50.390;19.096;2023-04-03T06:48:44;7.53;;;3.30;;
55493;SDS011;41355;50.390;19.096;2023-04-03T06:51:16;10.45;;;4.05;;
55493;SDS011;41355;50.390;19.096;2023-04-03T06:53:43;17.27;;;4.07;;
55493;SDS011;41355;50.390;19.096;2023-04-03T06:56:09;10.93;;;2.78;;
55493;SDS011;41355;50.390;19.096;2023-04-03T06:58:35;12.45;;;4.75;;
55493;SDS011;41355;50.390;19.096;2023-04-03T07:01:02;12.75;;;4.95;;
55493;SDS011;41355;50.390;19.096;2023-04-03T07:03:28;11.82;;;4.00;;
55493;SDS011;41355;50.390;19.096;2023-04-03T07:05:54;7.07;;;3.00;;
55493;SDS011;41355;50.390;19.096;2023-04-03T07:08:20;10.88;;;3.22;;
55493;SDS011;41355;50.390;19.096;2023-04-03T07:10:48;14.13;;;4.57;;
55493;SDS011;41355;50.390;19.096;2023-04-03T07:13:15;10.18;;;3.20;;
55493;SDS011;41355;50.390;19.096;2023-04-03T07:15:41;12.07;;;4.30;;
55493;SDS011;41355;50.390;19.096;2023-04-03T07:18:07;11.88;;;3.72;;
55493;SDS011;41355;50.390;19.096;2023-04-03T07:20:34;11.80;;;3.92;;
55493;SDS011;41355;50.390;19.096;2023-04-03T07:23:00;10.43;;;3.28;;
55493;SDS011;41355;50.390;19.096;2023-04-03T07:25:27;16.63;;;4.05;;
55493;SDS011;41355;50.390;19.096;2023-04-03T07:27:53;12.45;;;3.75;;
55493;SDS011;41355;50.390;19.096;2023-04-03T07:30:21;9.35;;;4.03;;
55493;SDS011;41355;50.390;19.096;2023-04-03T07:32:48;4.75;;;1.67;;
55493;SDS011;41355;50.390;19.096;2023-04-03T07:35:14;7.38;;;2.55;;
55493;SDS011;41355;50.390;19.096;2023-04-03T07:37:40;8.23;;;3.17;;
55493;SDS011;41355;50.390;19.096;2023-04-03T07:40:06;10.43;;;3.17;;
55493;SDS011;41355;50.390;19.096;2023-04-03T07:42:33;15.00;;;3.97;;
55493;SDS011;41355;50.390;19.096;2023-04-03T07:45:00;7.97;;;2.88;;
55493;SDS011;41355;50.390;19.096;2023-04-03T07:47:26;11.38;;;3.08;;
55493;SDS011;41355;50.390;19.096;2023-04-03T07:49:52;8.73;;;2.63;;
55493;SDS011;41355;50.390;19.096;2023-04-03T07:52:18;9.63;;;3.13;;
55493;SDS011;41355;50.390;19.096;2023-04-03T07:54:44;14.93;;;3.75;;
55493;SDS011;41355;50.390;19.096;2023-04-03T07:57:10;7.10;;;2.60;;
55493;SDS011;41355;50.390;19.096;2023-04-03T07:59:36;9.55;;;3.40;;
55493;SDS011;41355;50.390;19.096;2023-04-03T08:02:02;6.28;;;2.17;;
55493;SDS011;41355;50.390;19.096;2023-04-03T08:04:30;11.02;;;3.90;;
55493;SDS011;41355;50.390;19.096;2023-04-03T08:06:56;6.70;;;2.42;;
55493;SDS011;41355;50.390;19.096;2023-04-03T08:09:22;10.45;;;3.22;;
55493;SDS011;41355;50.390;19.096;2023-04-03T08:11:48;9.93;;;2.75;;
55493;SDS011;41355;50.390;19.096;2023-04-03T08:14:18;9.23;;;3.13;;
55493;SDS011;41355;50.390;19.096;2023-04-03T08:16:44;8.77;;;2.55;;
55493;SDS011;41355;50.390;19.096;2023-04-03T08:19:11;9.05;;;2.60;;
55493;SDS011;41355;50.390;19.096;2023-04-03T08:21:39;6.28;;;2.05;;
55493;SDS011;41355;50.390;19.096;2023-04-03T08:24:06;10.98;;;3.38;;
55493;SDS011;41355;50.390;19.096;2023-04-03T08:26:33;7.22;;;3.17;;
55493;SDS011;41355;50.390;19.096;2023-04-03T08:28:59;9.90;;;3.17;;
55493;SDS011;41355;50.390;19.096;2023-04-03T08:31:25;8.02;;;2.78;;
55493;SDS011;41355;50.390;19.096;2023-04-03T08:33:51;7.53;;;2.78;;
55493;SDS011;41355;50.390;19.096;2023-04-03T08:36:27;10.65;;;3.95;;
55493;SDS011;41355;50.390;19.096;2023-04-03T08:38:53;17.15;;;2.97;;
55493;SDS011;41355;50.390;19.096;2023-04-03T08:44:15;9.02;;;2.50;;
55493;SDS011;41355;50.390;19.096;2023-04-03T08:49:18;11.23;;;2.75;;
55493;SDS011;41355;50.390;19.096;2023-04-03T08:51:47;9.77;;;2.17;;
55493;SDS011;41355;50.390;19.096;2023-04-03T08:54:26;6.95;;;1.83;;
55493;SDS011;41355;50.390;19.096;2023-04-03T08:56:53;8.50;;;2.33;;
55493;SDS011;41355;50.390;19.096;2023-04-03T08:59:31;7.25;;;2.28;;
55493;SDS011;41355;50.390;19.096;2023-04-03T09:01:58;7.35;;;2.72;;
55493;SDS011;41355;50.390;19.096;2023-04-03T09:04:27;13.80;;;3.00;;
55493;SDS011;41355;50.390;19.096;2023-04-03T09:06:54;9.05;;;2.15;;
55493;SDS011;41355;50.390;19.096;2023-04-03T09:09:31;8.45;;;2.10;;
55493;SDS011;41355;50.390;19.096;2023-04-03T09:17:24;5.88;;;2.15;;
55493;SDS011;41355;50.390;19.096;2023-04-03T09:20:02;11.20;;;2.67;;
55493;SDS011;41355;50.390;19.096;2023-04-03T09:22:33;11.10;;;2.65;;
55493;SDS011;41355;50.390;19.096;2023-04-03T09:27:26;7.10;;;2.30;;
55493;SDS011;41355;50.390;19.096;2023-04-03T09:29:52;8.68;;;2.08;;
55493;SDS011;41355;50.390;19.096;2023-04-03T09:32:27;7.22;;;2.63;;
55493;SDS011;41355;50.390;19.096;2023-04-03T09:40:01;6.03;;;1.83;;
55493;SDS011;41355;50.390;19.096;2023-04-03T09:42:29;10.68;;;2.25;;
55493;SDS011;41355;50.390;19.096;2023-04-03T09:45:00;9.40;;;1.88;;
55493;SDS011;41355;50.390;19.096;2023-04-03T09:47:27;6.00;;;1.60;;
55493;SDS011;41355;50.390;19.096;2023-04-03T09:50:08;6.22;;;1.63;;
55493;SDS011;41355;50.390;19.096;2023-04-03T09:52:35;4.35;;;1.20;;
55493;SDS011;41355;50.390;19.096;2023-04-03T09:55:17;7.20;;;1.00;;
55493;SDS011;41355;50.390;19.096;2023-04-03T09:57:44;4.95;;;1.60;;
55493;SDS011;41355;50.390;19.096;2023-04-03T10:00:25;4.80;;;1.55;;
55493;SDS011;41355;50.390;19.096;2023-04-03T10:02:52;9.32;;;2.40;;
55493;SDS011;41355;50.390;19.096;2023-04-03T10:07:52;5.78;;;2.08;;
55493;SDS011;41355;50.390;19.096;2023-04-03T10:10:32;7.53;;;2.08;;
55493;SDS011;41355;50.390;19.096;2023-04-03T10:13:09;8.23;;;2.13;;
55493;SDS011;41355;50.390;19.096;2023-04-03T10:15:39;6.68;;;2.05;;
55493;SDS011;41355;50.390;19.096;2023-04-03T10:18:14;7.55;;;2.38;;
55493;SDS011;41355;50.390;19.096;2023-04-03T10:20:43;5.35;;;1.90;;
55493;SDS011;41355;50.390;19.096;2023-04-03T10:23:22;6.88;;;1.63;;
55493;SDS011;41355;50.390;19.096;2023-04-03T10:31:16;7.32;;;2.08;;
55493;SDS011;41355;50.390;19.096;2023-04-03T10:36:17;8.27;;;1.85;;
55493;SDS011;41355;50.390;19.096;2023-04-03T10:41:16;3.80;;;1.25;;
55493;SDS011;41355;50.390;19.096;2023-04-03T10:43:57;6.05;;;1.70;;
55493;SDS011;41355;50.390;19.096;2023-04-03T10:49:03;6.43;;;1.80;;
55493;SDS011;41355;50.390;19.096;2023-04-03T10:51:48;6.25;;;1.75;;
55493;SDS011;41355;50.390;19.096;2023-04-03T10:54:23;7.28;;;1.88;;
55493;SDS011;41355;50.390;19.096;2023-04-03T10:56:51;11.85;;;2.63;;
55493;SDS011;41355;50.390;19.096;2023-04-03T10:59:21;4.47;;;1.45;;
55493;SDS011;41355;50.390;19.096;2023-04-03T11:01:56;6.95;;;1.75;;
55493;SDS011;41355;50.390;19.096;2023-04-03T11:04:23;6.07;;;1.70;;
55493;SDS011;41355;50.390;19.096;2023-04-03T11:09:34;6.45;;;1.80;;
55493;SDS011;41355;50.390;19.096;2023-04-03T11:14:51;6.72;;;1.50;;
55493;SDS011;41355;50.390;19.096;2023-04-03T11:23:00;5.15;;;1.80;;
55493;SDS011;41355;50.390;19.096;2023-04-03T11:25:29;6.70;;;1.80;;
55493;SDS011;41355;50.390;19.096;2023-04-03T11:35:53;6.07;;;1.63;;
55493;SDS011;41355;50.390;19.096;2023-04-03T11:38:28;6.65;;;2.00;;
55493;SDS011;41355;50.390;19.096;2023-04-03T11:40:56;5.32;;;1.63;;
55493;SDS011;41355;50.390;19.096;2023-04-03T11:43:26;3.92;;;1.40;;
55493;SDS011;41355;50.390;19.096;2023-04-03T11:50:53;4.40;;;1.60;;
55493;SDS011;41355;50.390;19.096;2023-04-03T11:53:35;8.00;;;2.28;;
55493;SDS011;41355;50.390;19.096;2023-04-03T12:03:57;7.55;;;1.90;;
55493;SDS011;41355;50.390;19.096;2023-04-03T12:08:53;5.25;;;1.63;;
55493;SDS011;41355;50.390;19.096;2023-04-03T12:11:24;8.27;;;2.60;;
55493;SDS011;41355;50.390;19.096;2023-04-03T12:16:21;8.30;;;2.42;;
55493;SDS011;41355;50.390;19.096;2023-04-03T12:21:21;5.78;;;2.10;;
55493;SDS011;41355;50.390;19.096;2023-04-03T12:29:10;6.95;;;1.67;;
55493;SDS011;41355;50.390;19.096;2023-04-03T12:31:47;6.82;;;1.88;;
55493;SDS011;41355;50.390;19.096;2023-04-03T12:37:03;6.53;;;2.30;;
55493;SDS011;41355;50.390;19.096;2023-04-03T12:39:45;6.63;;;2.10;;
55493;SDS011;41355;50.390;19.096;2023-04-03T12:47:43;5.90;;;1.88;;
55493;SDS011;41355;50.390;19.096;2023-04-03T12:50:17;5.60;;;1.77;;
55493;SDS011;41355;50.390;19.096;2023-04-03T12:52:47;4.97;;;2.10;;
55493;SDS011;41355;50.390;19.096;2023-04-03T12:55:19;4.45;;;1.38;;
55493;SDS011;41355;50.390;19.096;2023-04-03T12:57:45;6.47;;;1.52;;
55493;SDS011;41355;50.390;19.096;2023-04-03T13:00:18;3.28;;;1.25;;
55493;SDS011;41355;50.390;19.096;2023-04-03T13:02:45;6.10;;;1.70;;
55493;SDS011;41355;50.390;19.096;2023-04-03T13:05:14;4.10;;;1.67;;
55493;SDS011;41355;50.390;19.096;2023-04-03T13:07:41;5.65;;;1.92;;
55493;SDS011;41355;50.390;19.096;2023-04-03T13:12:35;5.22;;;1.40;;
55493;SDS011;41355;50.390;19.096;2023-04-03T13:15:11;5.63;;;2.00;;
55493;SDS011;41355;50.390;19.096;2023-04-03T13:17:38;5.15;;;1.77;;
55493;SDS011;41355;50.390;19.096;2023-04-03T13:23:00;4.43;;;1.50;;
55493;SDS011;41355;50.390;19.096;2023-04-03T13:25:28;5.72;;;1.92;;
55493;SDS011;41355;50.390;19.096;2023-04-03T13:27:55;6.18;;;1.85;;
55493;SDS011;41355;50.390;19.096;2023-04-03T13:30:26;5.53;;;2.40;;
55493;SDS011;41355;50.390;19.096;2023-04-03T13:32:54;5.53;;;1.98;;
55493;SDS011;41355;50.390;19.096;2023-04-03T13:35:28;4.72;;;1.63;;
55493;SDS011;41355;50.390;19.096;2023-04-03T13:37:56;7.97;;;2.10;;
55493;SDS011;41355;50.390;19.096;2023-04-03T13:40:23;5.53;;;2.25;;
55493;SDS011;41355;50.390;19.096;2023-04-03T13:43:13;7.57;;;2.45;;
55493;SDS011;41355;50.390;19.096;2023-04-03T13:45:53;5.90;;;2.00;;
55493;SDS011;41355;50.390;19.096;2023-04-03T13:48:19;6.20;;;1.88;;
55493;SDS011;41355;50.390;19.096;2023-04-03T13:50:55;4.85;;;2.33;;
55493;SDS011;41355;50.390;19.096;2023-04-03T13:53:22;6.85;;;2.35;;
55493;SDS011;41355;50.390;19.096;2023-04-03T13:58:27;4.65;;;1.95;;
55493;SDS011;41355;50.390;19.096;2023-04-03T14:03:42;6.13;;;1.83;;
55493;SDS011;41355;50.390;19.096;2023-04-03T14:06:10;3.90;;;1.58;;
55493;SDS011;41355;50.390;19.096;2023-04-03T14:08:37;7.53;;;1.80;;
55493;SDS011;41355;50.390;19.096;2023-04-03T14:11:03;5.78;;;2.30;;
55493;SDS011;41355;50.390;19.096;2023-04-03T14:13:29;6.47;;;2.42;;
55493;SDS011;41355;50.390;19.096;2023-04-03T14:15:56;7.72;;;2.25;;
55493;SDS011;41355;50.390;19.096;2023-04-03T14:18:25;6.15;;;2.22;;
55493;SDS011;41355;50.390;19.096;2023-04-03T14:20:59;3.88;;;1.52;;
55493;SDS011;41355;50.390;19.096;2023-04-03T14:23:25;4.82;;;1.90;;
55493;SDS011;41355;50.390;19.096;2023-04-03T14:25:51;6.60;;;1.83;;
55493;SDS011;41355;50.390;19.096;2023-04-03T14:28:19;7.05;;;2.03;;
55493;SDS011;41355;50.390;19.096;2023-04-03T14:30:47;8.40;;;2.08;;
55493;SDS011;41355;50.390;19.096;2023-04-03T14:33:14;6.47;;;2.55;;
55493;SDS011;41355;50.390;19.096;2023-04-03T14:35:41;6.53;;;2.08;;
55493;SDS011;41355;50.390;19.096;2023-04-03T14:38:27;6.90;;;1.65;;
55493;SDS011;41355;50.390;19.096;2023-04-03T14:40:53;7.03;;;2.25;;
55493;SDS011;41355;50.390;19.096;2023-04-03T14:43:20;11.88;;;2.00;;
55493;SDS011;41355;50.390;19.096;2023-04-03T14:45:47;5.78;;;1.95;;
55493;SDS011;41355;50.390;19.096;2023-04-03T14:48:21;3.67;;;1.45;;
55493;SDS011;41355;50.390;19.096;2023-04-03T14:50:48;5.05;;;2.13;;
55493;SDS011;41355;50.390;19.096;2023-04-03T14:53:15;6.93;;;2.30;;
55493;SDS011;41355;50.390;19.096;2023-04-03T14:55:43;4.93;;;1.92;;
55493;SDS011;41355;50.390;19.096;2023-04-03T14:58:12;7.63;;;2.22;;
55493;SDS011;41355;50.390;19.096;2023-04-03T15:00:38;5.78;;;1.77;;
55493;SDS011;41355;50.390;19.096;2023-04-03T15:03:04;5.55;;;2.35;;
55493;SDS011;41355;50.390;19.096;2023-04-03T15:05:30;6.38;;;2.33;;
55493;SDS011;41355;50.390;19.096;2023-04-03T15:07:56;7.35;;;2.60;;
55493;SDS011;41355;50.390;19.096;2023-04-03T15:10:28;8.70;;;2.50;;
55493;SDS011;41355;50.390;19.096;2023-04-03T15:12:55;7.30;;;2.28;;
55493;SDS011;41355;50.390;19.096;2023-04-03T15:15:21;4.80;;;1.85;;
55493;SDS011;41355;50.390;19.096;2023-04-03T15:17:50;6.43;;;1.88;;
55493;SDS011;41355;50.390;19.096;2023-04-03T15:20:19;6.68;;;1.52;;
55493;SDS011;41355;50.390;19.096;2023-04-03T15:22:46;5.40;;;1.70;;
55493;SDS011;41355;50.390;19.096;2023-04-03T15:25:12;7.03;;;2.20;;
55493;SDS011;41355;50.390;19.096;2023-04-03T15:27:38;7.80;;;2.08;;
55493;SDS011;41355;50.390;19.096;2023-04-03T15:30:07;6.10;;;2.00;;
55493;SDS011;41355;50.390;19.096;2023-04-03T15:32:33;11.25;;;3.17;;
55493;SDS011;41355;50.390;19.096;2023-04-03T15:35:00;7.03;;;1.75;;
55493;SDS011;41355;50.390;19.096;2023-04-03T15:37:27;5.95;;;1.88;;
55493;SDS011;41355;50.390;19.096;2023-04-03T15:39:53;7.20;;;2.10;;
55493;SDS011;41355;50.390;19.096;2023-04-03T15:42:19;5.97;;;2.20;;
55493;SDS011;41355;50.390;19.096;2023-04-03T15:44:45;4.63;;;2.10;;
55493;SDS011;41355;50.390;19.096;2023-04-03T15:47:11;9.93;;;2.30;;
55493;SDS011;41355;50.390;19.096;2023-04-03T15:49:37;4.90;;;1.63;;
55493;SDS011;41355;50.390;19.096;2023-04-03T15:52:03;8.73;;;2.63;;
55493;SDS011;41355;50.390;19.096;2023-04-03T15:54:29;5.70;;;1.98;;
55493;SDS011;41355;50.390;19.096;2023-04-03T15:56:55;7.60;;;3.28;;
55493;SDS011;41355;50.390;19.096;2023-04-03T15:59:21;9.77;;;2.38;;
55493;SDS011;41355;50.390;19.096;2023-04-03T16:01:48;6.70;;;2.28;;
55493;SDS011;41355;50.390;19.096;2023-04-03T16:04:14;7.97;;;2.17;;
55493;SDS011;41355;50.390;19.096;2023-04-03T16:06:40;8.40;;;2.90;;
55493;SDS011;41355;50.390;19.096;2023-04-03T16:09:07;7.75;;;2.58;;
55493;SDS011;41355;50.390;19.096;2023-04-03T16:11:33;6.15;;;2.15;;
55493;SDS011;41355;50.390;19.096;2023-04-03T16:14:00;8.95;;;2.22;;
55493;SDS011;41355;50.390;19.096;2023-04-03T16:16:27;6.63;;;2.35;;